createdAt,value
2023-02-18T00:01:31.916Z,4.82
2023-02-18T00:03:59.668Z,4.87
2023-02-18T00:06:28.846Z,4.83
2023-02-18T00:08:55.969Z,4.89
2023-02-18T00:11:22.805Z,4.71
2023-02-18T00:13:51.399Z,4.84
2023-02-18T00:16:18.170Z,4.84
2023-02-18T00:18:45.016Z,4.92
2023-02-18T00:21:11.844Z,4.92
2023-02-18T00:23:38.698Z,4.89
2023-02-18T00:26:11.237Z,4.78
2023-02-18T00:28:38.379Z,4.83
2023-02-18T00:31:09.474Z,4.79
2023-02-18T00:33:36.523Z,4.77
2023-02-18T00:36:05.094Z,4.74
2023-02-18T00:38:31.994Z,4.72
2023-02-18T00:40:59.053Z,4.79
2023-02-18T00:43:25.935Z,4.79
2023-02-18T00:45:52.780Z,4.73
2023-02-18T00:48:19.528Z,4.73
2023-02-18T00:50:46.346Z,4.83
2023-02-18T00:53:13.203Z,4.80
2023-02-18T00:55:41.152Z,4.74
2023-02-18T00:58:07.958Z,4.73
2023-02-18T01:00:34.806Z,4.74
2023-02-18T01:03:01.820Z,4.75
2023-02-18T01:05:28.969Z,4.76
2023-02-18T01:07:55.849Z,4.73
2023-02-18T01:10:22.655Z,4.70
2023-02-18T01:12:49.474Z,4.67
2023-02-18T01:15:16.505Z,4.64
2023-02-18T01:17:43.345Z,4.64
2023-02-18T01:20:10.702Z,4.67
2023-02-18T01:22:37.655Z,4.58
2023-02-18T01:25:04.614Z,4.59
2023-02-18T01:27:31.436Z,4.58
2023-02-18T01:29:58.395Z,4.65
2023-02-18T01:32:25.248Z,4.58
2023-02-18T01:34:52.052Z,4.60
2023-02-18T01:37:18.879Z,4.65
2023-02-18T01:39:46.104Z,4.65
2023-02-18T01:42:23.513Z,4.68
2023-02-18T01:44:50.516Z,4.64
2023-02-18T01:47:17.602Z,4.61
2023-02-18T01:49:46.491Z,4.66
2023-02-18T01:52:16.832Z,4.67
2023-02-18T01:54:46.186Z,4.69
2023-02-18T01:57:14.671Z,4.67
2023-02-18T01:59:51.124Z,4.81
2023-02-18T02:02:19.886Z,4.76
2023-02-18T02:04:46.766Z,4.89
2023-02-18T02:07:13.616Z,4.85
2023-02-18T02:09:40.385Z,4.97
2023-02-18T02:12:44.772Z,5.11
2023-02-18T02:15:36.106Z,5.16
2023-02-18T02:18:21.373Z,5.23
2023-02-18T02:20:51.139Z,5.26
2023-02-18T02:23:54.947Z,5.30
2023-02-18T02:26:33.306Z,5.24
2023-02-18T02:28:59.993Z,5.31
2023-02-18T02:31:43.269Z,5.23
2023-02-18T02:34:28.392Z,5.35
2023-02-18T02:37:16.682Z,5.36
2023-02-18T02:40:21.965Z,5.29
2023-02-18T02:43:18.455Z,5.33
2023-02-18T02:46:03.956Z,5.40
2023-02-18T02:48:41.708Z,5.35
2023-02-18T02:51:17.832Z,5.36
2023-02-18T02:53:44.775Z,5.32
2023-02-18T02:56:22.329Z,5.34
2023-02-18T02:58:59.661Z,5.33
2023-02-18T03:01:26.341Z,5.33
2023-02-18T03:04:28.713Z,5.24
2023-02-18T03:07:17.320Z,5.31
2023-02-18T03:10:21.242Z,5.31
2023-02-18T03:13:09.599Z,5.31
2023-02-18T03:16:11.650Z,5.31
2023-02-18T03:18:46.277Z,5.28
2023-02-18T03:21:37.419Z,5.21
2023-02-18T03:24:14.953Z,5.15
2023-02-18T03:26:46.458Z,5.24
2023-02-18T03:29:13.242Z,5.30
2023-02-18T03:31:40.267Z,5.27
2023-02-18T03:34:13.020Z,5.24
2023-02-18T03:36:39.843Z,5.20
2023-02-18T03:39:12.251Z,5.22
2023-02-18T03:41:39.121Z,5.15
2023-02-18T03:44:07.401Z,5.13
2023-02-18T03:46:34.584Z,5.08
2023-02-18T03:49:01.657Z,4.98
2023-02-18T03:51:28.432Z,4.85
2023-02-18T03:53:55.221Z,4.81
2023-02-18T03:56:22.175Z,4.69
2023-02-18T03:58:49.012Z,4.71
2023-02-18T04:01:15.844Z,4.60
2023-02-18T04:03:42.671Z,4.54
2023-02-18T04:06:09.864Z,4.53
2023-02-18T04:08:36.816Z,4.60
2023-02-18T04:11:05.117Z,4.54
2023-02-18T04:13:31.939Z,4.57
2023-02-18T04:15:58.705Z,4.62
2023-02-18T04:18:25.552Z,4.64
2023-02-18T04:20:52.473Z,4.68
2023-02-18T04:23:19.293Z,4.63
2023-02-18T04:25:46.096Z,4.63
2023-02-18T04:28:14.475Z,4.65
2023-02-18T04:30:41.837Z,4.63
2023-02-18T04:33:08.806Z,4.59
2023-02-18T04:35:36.894Z,4.48
2023-02-18T04:38:04.065Z,4.57
2023-02-18T04:40:30.924Z,4.48
2023-02-18T04:42:58.496Z,4.45
2023-02-18T04:45:25.995Z,4.39
2023-02-18T04:47:52.885Z,4.41
2023-02-18T04:50:19.883Z,4.44
2023-02-18T04:52:46.819Z,4.44
2023-02-18T04:55:13.642Z,4.37
2023-02-18T04:57:40.447Z,4.33
2023-02-18T05:00:09.231Z,4.25
2023-02-18T05:02:36.066Z,4.24
2023-02-18T05:05:02.884Z,4.14
2023-02-18T05:07:29.648Z,4.09
2023-02-18T05:09:56.439Z,4.09
2023-02-18T05:12:23.250Z,3.94
2023-02-18T05:14:50.015Z,3.87
2023-02-18T05:17:16.773Z,3.93
2023-02-18T05:19:43.613Z,3.93
2023-02-18T05:22:10.433Z,3.76
2023-02-18T05:24:37.223Z,3.82
2023-02-18T05:27:04.129Z,3.67
2023-02-18T05:29:30.926Z,3.64
2023-02-18T05:31:57.785Z,3.57
2023-02-18T05:34:24.650Z,3.49
2023-02-18T05:36:51.432Z,3.44
2023-02-18T05:39:18.174Z,3.53
2023-02-18T05:41:44.931Z,3.53
2023-02-18T05:44:30.508Z,3.41
2023-02-18T05:47:01.772Z,3.42
2023-02-18T05:49:29.578Z,3.40
2023-02-18T05:51:56.944Z,3.34
2023-02-18T05:54:23.943Z,3.36
2023-02-18T05:56:51.374Z,3.31
2023-02-18T05:59:18.439Z,3.27
2023-02-18T06:01:45.894Z,3.30
2023-02-18T06:04:12.945Z,3.30
2023-02-18T06:06:39.760Z,3.22
2023-02-18T06:09:06.793Z,3.15
2023-02-18T06:11:33.800Z,3.26
2023-02-18T06:14:00.717Z,3.25
2023-02-18T06:16:27.653Z,3.23
2023-02-18T06:18:54.486Z,3.29
2023-02-18T06:21:21.349Z,3.33
2023-02-18T06:23:48.224Z,3.39
2023-02-18T06:26:15.130Z,3.47
2023-02-18T06:28:41.952Z,3.52
2023-02-18T06:31:08.919Z,3.48
2023-02-18T06:33:35.825Z,3.54
2023-02-18T06:36:07.975Z,3.57
2023-02-18T06:38:35.493Z,3.70
2023-02-18T06:41:02.422Z,3.75
2023-02-18T06:43:29.304Z,3.85
2023-02-18T06:45:56.163Z,3.85
2023-02-18T06:48:23.090Z,3.98
2023-02-18T06:50:49.969Z,4.12
2023-02-18T06:53:19.538Z,4.19
2023-02-18T06:55:46.354Z,4.19
2023-02-18T06:58:13.392Z,4.29
2023-02-18T07:00:40.254Z,4.44
2023-02-18T07:03:07.176Z,4.71
2023-02-18T07:05:34.017Z,4.99
2023-02-18T07:08:00.960Z,5.37
2023-02-18T07:10:27.837Z,5.71
2023-02-18T07:12:54.590Z,6.04
2023-02-18T07:15:24.498Z,6.33
2023-02-18T07:17:52.066Z,6.64
2023-02-18T07:20:19.982Z,6.98
2023-02-18T07:22:47.046Z,7.40
2023-02-18T07:25:14.136Z,7.63
2023-02-18T07:27:41.150Z,7.97
2023-02-18T07:30:08.373Z,8.28
2023-02-18T07:32:35.253Z,8.58
2023-02-18T07:35:02.812Z,8.86
2023-02-18T07:37:29.647Z,9.10
2023-02-18T07:39:56.429Z,9.35
2023-02-18T07:42:23.366Z,9.72
2023-02-18T07:44:50.206Z,9.99
2023-02-18T07:47:19.758Z,10.12
2023-02-18T07:49:47.088Z,10.18
2023-02-18T07:52:14.630Z,10.22
2023-02-18T07:54:41.548Z,10.42
2023-02-18T07:57:08.410Z,10.69
2023-02-18T07:59:35.309Z,10.85
2023-02-18T08:02:03.114Z,11.13
2023-02-18T08:04:30.111Z,11.44
2023-02-18T08:06:57.004Z,11.83
2023-02-18T08:09:23.787Z,12.24
2023-02-18T08:11:50.649Z,12.66
2023-02-18T08:14:17.491Z,13.05
2023-02-18T08:16:44.263Z,13.41
2023-02-18T08:19:11.095Z,13.83
2023-02-18T08:21:37.908Z,14.30
2023-02-18T08:24:04.822Z,14.79
2023-02-18T08:26:31.653Z,14.94
2023-02-18T08:28:58.452Z,15.32
2023-02-18T08:31:27.080Z,15.60
2023-02-18T08:33:55.252Z,15.95
2023-02-18T08:36:22.259Z,16.31
2023-02-18T08:38:49.163Z,16.23
2023-02-18T08:41:16.194Z,16.10
2023-02-18T08:43:43.187Z,15.89
2023-02-18T08:46:16.643Z,15.40
2023-02-18T08:48:51.952Z,14.72
2023-02-18T08:51:20.333Z,14.12
2023-02-18T08:53:47.330Z,13.58
2023-02-18T08:56:14.813Z,13.29
2023-02-18T08:58:41.932Z,13.12
2023-02-18T09:01:10.900Z,13.04
2023-02-18T09:03:38.084Z,12.95
2023-02-18T09:06:05.131Z,12.74
2023-02-18T09:08:32.011Z,12.80
2023-02-18T09:10:59.871Z,12.75
2023-02-18T09:13:27.524Z,12.88
2023-02-18T09:16:02.037Z,13.22
2023-02-18T09:18:29.034Z,13.43
2023-02-18T09:20:57.756Z,13.56
2023-02-18T09:23:28.960Z,13.80
2023-02-18T09:25:55.898Z,13.72
2023-02-18T09:28:22.809Z,13.61
2023-02-18T09:30:49.840Z,13.89
2023-02-18T09:33:16.766Z,13.89
2023-02-18T09:35:44.207Z,13.77
2023-02-18T09:38:11.519Z,14.40
2023-02-18T09:40:40.184Z,15.34
2023-02-18T09:43:06.986Z,15.75
2023-02-18T09:45:33.858Z,16.81
2023-02-18T09:48:00.706Z,16.67
2023-02-18T09:50:32.535Z,16.25
2023-02-18T09:53:00.088Z,15.63
2023-02-18T09:55:36.509Z,15.31
2023-02-18T09:58:30.469Z,15.30
2023-02-18T10:01:53.110Z,15.89
2023-02-18T10:04:24.099Z,16.21
2023-02-18T10:06:52.088Z,16.37
2023-02-18T10:09:35.437Z,16.16
2023-02-18T10:12:11.606Z,15.69
2023-02-18T10:14:38.619Z,15.46
2023-02-18T10:17:05.473Z,15.74
2023-02-18T10:19:34.634Z,15.92
2023-02-18T10:22:02.533Z,17.09
2023-02-18T10:24:57.998Z,18.39
2023-02-18T10:27:25.820Z,18.01
2023-02-18T10:29:52.868Z,19.02
2023-02-18T10:32:28.595Z,20.29
2023-02-18T10:35:13.785Z,20.45
2023-02-18T10:38:02.228Z,19.81
2023-02-18T10:40:52.546Z,19.76
2023-02-18T10:43:56.369Z,19.30
2023-02-18T10:46:38.595Z,17.80
2023-02-18T10:49:10.951Z,16.67
2023-02-18T10:51:38.132Z,15.87
2023-02-18T10:54:05.115Z,15.53
2023-02-18T10:56:40.591Z,16.50
2023-02-18T10:59:23.207Z,17.59
2023-02-18T11:01:57.619Z,17.56
2023-02-18T11:04:34.811Z,16.83
2023-02-18T11:07:05.033Z,16.60
2023-02-18T11:09:56.820Z,16.91
2023-02-18T11:12:35.268Z,16.97
2023-02-18T11:15:14.068Z,16.97
2023-02-18T11:17:41.753Z,17.78
2023-02-18T11:20:27.208Z,17.44
2023-02-18T11:22:58.373Z,17.16
2023-02-18T11:25:27.375Z,16.79
2023-02-18T11:27:58.366Z,16.68
2023-02-18T11:30:39.555Z,16.35
2023-02-18T11:33:16.039Z,16.56
2023-02-18T11:35:51.990Z,16.58
2023-02-18T11:38:24.080Z,17.06
2023-02-18T11:40:58.744Z,17.75
2023-02-18T11:43:26.504Z,18.88
2023-02-18T11:46:11.825Z,19.05
2023-02-18T11:48:38.724Z,18.44
2023-02-18T11:51:07.383Z,18.01
2023-02-18T11:53:37.765Z,17.61
2023-02-18T11:56:06.951Z,17.31
2023-02-18T11:58:47.542Z,16.85
2023-02-18T12:01:36.892Z,16.92
2023-02-18T12:04:20.391Z,16.48
2023-02-18T12:06:53.649Z,16.48
2023-02-18T12:09:40.868Z,16.30
2023-02-18T12:12:15.019Z,15.75
2023-02-18T12:14:41.879Z,15.30
2023-02-18T12:17:25.065Z,15.12
2023-02-18T12:20:07.052Z,14.97
2023-02-18T12:22:44.433Z,14.70
2023-02-18T12:25:39.332Z,15.01
2023-02-18T12:28:34.954Z,15.55
2023-02-18T12:31:16.989Z,15.13
2023-02-18T12:33:52.917Z,14.95
2023-02-18T12:36:45.533Z,14.55
2023-02-18T12:39:18.558Z,14.27
2023-02-18T12:42:00.333Z,13.96
2023-02-18T12:44:36.094Z,13.58
2023-02-18T12:47:20.619Z,13.22
2023-02-18T12:49:56.252Z,12.92
2023-02-18T12:52:33.313Z,12.64
2023-02-18T12:55:30.733Z,12.59
2023-02-18T12:58:34.831Z,12.53
2023-02-18T13:01:22.987Z,12.56
2023-02-18T13:04:20.235Z,12.50
2023-02-18T13:06:53.122Z,12.35
2023-02-18T13:09:28.793Z,12.22
2023-02-18T13:12:20.295Z,12.08
2023-02-18T13:15:13.994Z,12.01
2023-02-18T13:17:40.815Z,11.89
2023-02-18T13:20:44.979Z,11.88
2023-02-18T13:23:19.914Z,11.90
2023-02-18T13:25:46.755Z,11.96
2023-02-18T13:28:44.110Z,12.04
2023-02-18T13:31:24.873Z,11.99
2023-02-18T13:34:14.790Z,11.89
2023-02-18T13:37:07.875Z,11.73
2023-02-18T13:39:35.188Z,11.54
2023-02-18T13:42:17.214Z,11.27
2023-02-18T13:44:56.054Z,11.01
2023-02-18T13:47:49.573Z,10.78
2023-02-18T13:50:22.588Z,10.68
2023-02-18T13:52:50.374Z,10.63
2023-02-18T13:55:22.126Z,10.66
2023-02-18T13:57:49.051Z,10.66
2023-02-18T14:00:23.913Z,10.57
2023-02-18T14:03:36.546Z,10.51
2023-02-18T14:06:13.789Z,10.46
2023-02-18T14:08:40.765Z,10.29
2023-02-18T14:11:13.790Z,10.15
2023-02-18T14:14:13.645Z,9.99
2023-02-18T14:17:17.950Z,9.88
2023-02-18T14:20:03.275Z,9.73
2023-02-18T14:22:49.588Z,9.60
2023-02-18T14:25:32.439Z,9.44
2023-02-18T14:28:02.409Z,9.26
2023-02-18T14:30:47.492Z,9.10
2023-02-18T14:33:15.559Z,8.88
2023-02-18T14:36:00.471Z,8.74
2023-02-18T14:38:32.882Z,8.67
2023-02-18T14:41:36.969Z,8.53
2023-02-18T14:44:34.793Z,8.45
2023-02-18T14:47:26.210Z,8.34
2023-02-18T14:49:59.091Z,8.23
2023-02-18T14:52:54.454Z,8.12
2023-02-18T14:55:28.958Z,7.98
2023-02-18T14:58:02.664Z,7.93
2023-02-18T15:00:32.414Z,7.79
2023-02-18T15:03:00.597Z,7.71
2023-02-18T15:05:31.819Z,7.65
2023-02-18T15:08:03.747Z,7.57
2023-02-18T15:10:40.996Z,7.43
2023-02-18T15:13:37.500Z,7.40
2023-02-18T15:16:09.447Z,7.27
2023-02-18T15:18:59.413Z,7.24
2023-02-18T15:21:29.290Z,7.17
2023-02-18T15:23:56.909Z,7.01
2023-02-18T15:26:23.750Z,6.93
2023-02-18T15:29:04.784Z,6.82
2023-02-18T15:31:36.400Z,6.73
2023-02-18T15:34:04.439Z,6.67
2023-02-18T15:36:32.092Z,6.59
2023-02-18T15:38:59.224Z,6.45
2023-02-18T15:41:26.064Z,6.41
2023-02-18T15:43:58.015Z,6.32
2023-02-18T15:46:26.483Z,6.26
2023-02-18T15:48:53.532Z,6.14
2023-02-18T15:51:22.859Z,6.12
2023-02-18T15:53:52.605Z,6.07
2023-02-18T15:56:34.593Z,5.92
2023-02-18T15:59:27.280Z,5.91
2023-02-18T16:02:16.688Z,5.83
2023-02-18T16:04:47.549Z,5.76
2023-02-18T16:07:21.627Z,5.72
2023-02-18T16:09:48.500Z,5.61
2023-02-18T16:12:26.766Z,5.54
2023-02-18T16:14:53.767Z,5.55
2023-02-18T16:17:21.674Z,5.49
2023-02-18T16:20:22.289Z,5.42
2023-02-18T16:22:53.846Z,5.30
2023-02-18T16:25:25.318Z,5.24
2023-02-18T16:27:58.210Z,5.17
2023-02-18T16:30:27.069Z,5.09
2023-02-18T16:32:54.963Z,4.99
2023-02-18T16:35:22.676Z,4.85
2023-02-18T16:37:52.636Z,4.79
2023-02-18T16:40:38.471Z,4.74
2023-02-18T16:43:15.625Z,4.59
2023-02-18T16:45:52.677Z,4.55
2023-02-18T16:48:41.646Z,4.48
2023-02-18T16:51:33.703Z,4.29
2023-02-18T16:54:00.625Z,4.22
2023-02-18T16:56:30.880Z,4.11
2023-02-18T16:58:57.781Z,4.02
2023-02-18T17:01:29.988Z,3.98
2023-02-18T17:04:00.372Z,3.91
2023-02-18T17:06:27.389Z,3.84
2023-02-18T17:08:54.318Z,3.74
2023-02-18T17:11:25.751Z,3.71
2023-02-18T17:13:53.536Z,3.48
2023-02-18T17:16:20.982Z,3.39
2023-02-18T17:18:47.882Z,3.39
2023-02-18T17:21:16.061Z,3.21
2023-02-18T17:23:43.005Z,3.14
2023-02-18T17:26:19.078Z,3.09
2023-02-18T17:28:45.911Z,2.96
2023-02-18T17:31:39.963Z,2.93
2023-02-18T17:34:08.144Z,2.74
2023-02-18T17:36:34.999Z,2.85
2023-02-18T17:39:02.825Z,2.83
2023-02-18T17:41:29.854Z,2.78
2023-02-18T17:43:56.701Z,2.74
2023-02-18T17:46:23.603Z,2.77
2023-02-18T17:48:50.492Z,2.87
2023-02-18T17:51:25.603Z,2.95
2023-02-18T17:53:52.501Z,3.04
2023-02-18T17:56:19.308Z,3.22
2023-02-18T17:58:46.938Z,3.31
2023-02-18T18:01:13.891Z,3.35
2023-02-18T18:03:40.803Z,3.46
2023-02-18T18:06:20.523Z,3.56
2023-02-18T18:08:47.831Z,3.53
2023-02-18T18:11:19.913Z,3.39
2023-02-18T18:13:46.936Z,3.49
2023-02-18T18:16:14.574Z,3.47
2023-02-18T18:18:41.456Z,3.48
2023-02-18T18:21:32.911Z,3.42
2023-02-18T18:23:59.736Z,3.32
2023-02-18T18:26:26.657Z,3.30
2023-02-18T18:28:53.926Z,3.30
2023-02-18T18:31:21.131Z,3.32
2023-02-18T18:33:50.567Z,3.39
2023-02-18T18:36:18.689Z,3.28
2023-02-18T18:38:45.538Z,3.27
2023-02-18T18:41:17.285Z,3.19
2023-02-18T18:43:44.270Z,3.17
2023-02-18T18:46:11.171Z,3.22
2023-02-18T18:48:38.110Z,3.10
2023-02-18T18:51:05.373Z,3.23
2023-02-18T18:53:33.544Z,3.19
2023-02-18T18:56:05.281Z,3.17
2023-02-18T18:58:32.167Z,3.11
2023-02-18T19:01:03.223Z,3.11
2023-02-18T19:03:30.575Z,3.15
2023-02-18T19:05:57.932Z,3.06
2023-02-18T19:08:24.833Z,3.02
2023-02-18T19:10:56.097Z,2.91
2023-02-18T19:13:27.642Z,2.83
2023-02-18T19:16:09.098Z,2.79
2023-02-18T19:18:35.997Z,2.59
2023-02-18T19:21:03.649Z,2.63
2023-02-18T19:23:31.227Z,2.62
2023-02-18T19:25:58.996Z,2.49
2023-02-18T19:28:26.455Z,2.39
2023-02-18T19:30:53.330Z,2.39
2023-02-18T19:33:20.267Z,2.43
2023-02-18T19:35:47.138Z,2.36
2023-02-18T19:38:15.417Z,2.29
2023-02-18T19:40:42.540Z,2.28
2023-02-18T19:43:09.628Z,2.38
2023-02-18T19:45:46.451Z,2.42
2023-02-18T19:48:13.985Z,2.52
2023-02-18T19:50:42.060Z,2.50
2023-02-18T19:53:09.161Z,2.50
2023-02-18T19:55:36.293Z,2.59
2023-02-18T19:58:03.266Z,2.60
2023-02-18T20:00:30.180Z,2.50
2023-02-18T20:02:57.569Z,2.51
2023-02-18T20:05:24.439Z,2.49
2023-02-18T20:07:51.326Z,2.32
2023-02-18T20:10:20.120Z,2.39
2023-02-18T20:12:52.184Z,2.35
2023-02-18T20:15:19.340Z,2.26
2023-02-18T20:17:46.191Z,2.10
2023-02-18T20:20:13.039Z,2.18
2023-02-18T20:22:39.919Z,2.22
2023-02-18T20:25:07.082Z,2.15
2023-02-18T20:27:34.187Z,2.12
2023-02-18T20:30:01.147Z,1.92
2023-02-18T20:32:28.135Z,2.01
2023-02-18T20:34:56.969Z,2.10
2023-02-18T20:37:23.815Z,2.08
2023-02-18T20:39:50.645Z,2.12
2023-02-18T20:42:17.689Z,2.14
2023-02-18T20:44:45.517Z,2.12
2023-02-18T20:47:15.850Z,2.19
2023-02-18T20:49:42.954Z,2.13
2023-02-18T20:52:10.272Z,2.18
2023-02-18T20:54:37.127Z,2.04
2023-02-18T20:57:04.066Z,1.91
2023-02-18T20:59:33.287Z,1.96
2023-02-18T21:02:00.322Z,1.98
2023-02-18T21:04:27.246Z,1.92
2023-02-18T21:06:54.361Z,1.89
2023-02-18T21:09:21.582Z,1.86
2023-02-18T21:11:48.517Z,1.79
2023-02-18T21:14:15.399Z,1.76
2023-02-18T21:16:42.328Z,1.66
2023-02-18T21:19:14.262Z,1.69
2023-02-18T21:21:41.526Z,1.66
2023-02-18T21:24:08.440Z,1.70
2023-02-18T21:26:35.440Z,1.60
2023-02-18T21:29:05.674Z,1.61
2023-02-18T21:31:40.077Z,1.56
2023-02-18T21:34:07.781Z,1.53
2023-02-18T21:36:34.758Z,1.48
2023-02-18T21:39:06.089Z,1.48
2023-02-18T21:41:33.802Z,1.37
2023-02-18T21:44:00.932Z,1.30
2023-02-18T21:46:29.407Z,1.36
2023-02-18T21:49:02.353Z,1.28
2023-02-18T21:51:53.315Z,1.32
2023-02-18T21:54:22.378Z,1.23
2023-02-18T21:56:49.747Z,1.27
2023-02-18T21:59:16.704Z,1.25
2023-02-18T22:01:43.671Z,1.17
2023-02-18T22:04:11.038Z,1.26
2023-02-18T22:06:37.905Z,1.22
2023-02-18T22:09:05.039Z,1.17
2023-02-18T22:11:32.503Z,1.19
2023-02-18T22:13:59.401Z,1.13
2023-02-18T22:16:28.307Z,1.11
2023-02-18T22:18:58.366Z,1.05
2023-02-18T22:21:25.364Z,1.04
2023-02-18T22:23:52.202Z,0.97
2023-02-18T22:26:19.041Z,1.12
2023-02-18T22:28:54.521Z,1.04
2023-02-18T22:31:21.608Z,1.02
2023-02-18T22:33:52.243Z,0.85
2023-02-18T22:36:23.018Z,1.04
2023-02-18T22:38:50.085Z,1.00
2023-02-18T22:41:17.794Z,1.04
2023-02-18T22:43:44.655Z,1.01
2023-02-18T22:46:13.235Z,1.11
2023-02-18T22:48:40.318Z,1.19
2023-02-18T22:51:09.471Z,1.31
2023-02-18T22:53:36.812Z,1.36
2023-02-18T22:56:14.431Z,1.42
2023-02-18T22:58:41.805Z,1.44
2023-02-18T23:01:09.418Z,1.49
2023-02-18T23:03:36.516Z,1.49
2023-02-18T23:06:06.564Z,1.54
2023-02-18T23:08:33.644Z,1.52
2023-02-18T23:11:05.353Z,1.57
2023-02-18T23:13:32.198Z,1.56
2023-02-18T23:15:59.826Z,1.54
2023-02-18T23:18:26.815Z,1.53
2023-02-18T23:21:12.895Z,1.45
2023-02-18T23:23:39.717Z,1.44
2023-02-18T23:26:06.562Z,1.37
2023-02-18T23:28:47.735Z,1.27
2023-02-18T23:31:18.857Z,1.24
2023-02-18T23:33:52.487Z,1.14
2023-02-18T23:36:20.518Z,1.09
2023-02-18T23:38:49.241Z,1.09
2023-02-18T23:41:16.226Z,1.04
2023-02-18T23:43:43.166Z,0.92
2023-02-18T23:46:09.998Z,0.90
2023-02-18T23:48:38.384Z,0.85
2023-02-18T23:51:06.446Z,0.83
2023-02-18T23:53:34.030Z,0.79
2023-02-18T23:56:14.947Z,0.80
2023-02-18T23:58:42.691Z,0.88
